TimeEST,TemperatureF,Dew PointF,Humidity,Sea Level PressureIn,VisibilityMPH,Wind Direction,Wind SpeedMPH,Gust SpeedMPH,PrecipitationIn,Events,Conditions,WindDirDegrees,DateUTC
12:53 AM,-11.9,-15.0,86,30.43,10.0,Calm,Calm,-,N/A,,Clear,0,2013-02-10 05:53:00
1:53 AM,-11.9,-16.1,82,30.43,10.0,Calm,Calm,-,N/A,,Clear,0,2013-02-10 06:53:00
2:53 AM,-11.0,-16.1,78,30.44,10.0,Calm,Calm,-,N/A,,Clear,0,2013-02-10 07:53:00
3:53 AM,-13.0,-18.0,78,30.45,10.0,Calm,Calm,-,N/A,,Clear,0,2013-02-10 08:53:00
4:53 AM,-14.1,-18.0,82,30.46,10.0,Calm,Calm,-,N/A,,Clear,0,2013-02-10 09:53:00
5:53 AM,-15.0,-20.0,78,30.48,10.0,Calm,Calm,-,N/A,,Clear,0,2013-02-10 10:53:00
6:53 AM,-14.1,-20.0,75,30.51,10.0,Calm,Calm,-,N/A,,Clear,0,2013-02-10 11:53:00
7:53 AM,-9.9,-15.0,78,30.54,10.0,Calm,Calm,-,N/A,,Clear,0,2013-02-10 12:53:00
8:53 AM,-0.0,-2.9,88,30.55,10.0,Calm,Calm,-,N/A,,Scattered Clouds,0,2013-02-10 13:53:00
9:53 AM,7.0,1.0,77,30.55,7.0,Calm,Calm,-,N/A,,Clear,0,2013-02-10 14:53:00
10:53 AM,12.9,1.0,59,30.56,10.0,SSE,4.6,-,0.00,,Clear,160,2013-02-10 15:53:00
11:53 AM,17.1,1.9,52,30.53,10.0,Calm,Calm,-,N/A,,Clear,0,2013-02-10 16:53:00
12:53 PM,19.0,-0.9,42,30.49,10.0,Calm,Calm,-,N/A,,Clear,0,2013-02-10 17:53:00
1:53 PM,21.0,-0.9,38,30.46,10.0,Calm,Calm,-,N/A,,Clear,0,2013-02-10 18:53:00
2:53 PM,23.0,-0.9,35,30.45,10.0,Calm,Calm,-,N/A,,Clear,0,2013-02-10 19:53:00
3:53 PM,24.1,-0.9,34,30.43,10.0,Calm,Calm,-,N/A,,Clear,0,2013-02-10 20:53:00
4:53 PM,23.0,-2.9,32,30.41,10.0,Calm,Calm,-,N/A,,Clear,0,2013-02-10 21:53:00
5:53 PM,17.1,-0.9,45,30.42,10.0,Calm,Calm,-,N/A,,Clear,0,2013-02-10 22:53:00
6:53 PM,9.0,-2.0,61,30.41,10.0,Calm,Calm,-,N/A,,Clear,0,2013-02-10 23:53:00
7:53 PM,5.0,-4.0,66,30.40,10.0,Calm,Calm,-,N/A,,Clear,0,2013-02-11 00:53:00
8:53 PM,3.0,-4.0,73,30.39,10.0,Calm,Calm,-,N/A,,Clear,0,2013-02-11 01:53:00
9:53 PM,3.0,-4.0,73,30.37,10.0,Calm,Calm,-,N/A,,Clear,0,2013-02-11 02:53:00
10:53 PM,-0.0,-5.1,79,30.35,10.0,Calm,Calm,-,N/A,,Scattered Clouds,0,2013-02-11 03:53:00
11:53 PM,3.9,-2.0,76,30.32,10.0,Calm,Calm,-,N/A,,Clear,0,2013-02-11 04:53:00